Camden, Missouri
Current Conditions -  °F | °C
As of 4:35 PM on Tuesday 25 Nov 2014 (Local Time) from KGPH Reporting Station
Clear Clear  
Wind Chill: 41°   Ceiling: Unl
Heat Index: 41°   Visibility: 10mi
Dew Point: 14°   Wind: 3mph
Humidity: 33%   Direction: 180°S
Pressure: 30.1"   Gusts: NA
Location:  39.2°N, 94.02°W
Report Text: KGPH 252235Z AUTO 18003KT 10SM CLR 05/M10 A3010 RMK AO2
Loading
Personal Weather Stations






























Interactive Weather Map New forecast layout! Learn more

10-Day Weather Forecast

Advertisements
Track Severe Weather on mobile